createdAt,value
2022-08-23T00:00:19.905Z,14.38
2022-08-23T00:02:48.590Z,13.90
2022-08-23T00:05:20.398Z,13.32
2022-08-23T00:07:50.161Z,12.77
2022-08-23T00:10:18.925Z,13.15
2022-08-23T00:12:48.608Z,13.30
2022-08-23T00:15:21.561Z,12.23
2022-08-23T00:17:50.553Z,13.73
2022-08-23T00:20:20.912Z,13.00
2022-08-23T00:22:50.698Z,12.70
2022-08-23T00:25:19.514Z,13.07
2022-08-23T00:27:48.158Z,12.50
2022-08-23T00:30:17.847Z,14.32
2022-08-23T00:32:46.764Z,12.63
2022-08-23T00:35:22.219Z,13.13
2022-08-23T00:38:33.422Z,12.20
2022-08-23T00:40:51.197Z,13.75
2022-08-23T00:43:43.104Z,14.30
2022-08-23T00:46:36.444Z,13.90
2022-08-23T00:49:09.158Z,13.20
2022-08-23T00:51:52.333Z,14.10
2022-08-23T00:54:26.519Z,15.35
2022-08-23T00:56:55.767Z,13.23
2022-08-23T00:59:24.859Z,13.20
2022-08-23T01:01:53.656Z,13.63
2022-08-23T01:04:22.455Z,13.90
2022-08-23T01:06:55.477Z,13.68
2022-08-23T01:09:26.088Z,12.75
2022-08-23T01:12:00.942Z,12.15
2022-08-23T01:14:33.176Z,13.70
2022-08-23T01:17:05.830Z,12.95
2022-08-23T01:19:36.967Z,13.13
2022-08-23T01:22:11.043Z,13.10
2022-08-23T01:25:06.078Z,14.60
2022-08-23T01:27:32.131Z,13.27
2022-08-23T01:30:02.029Z,13.93
2022-08-23T01:32:32.568Z,13.85
2022-08-23T01:35:01.598Z,15.65
2022-08-23T01:37:30.098Z,13.85
2022-08-23T01:40:01.441Z,14.43
2022-08-23T01:42:30.113Z,13.77
2022-08-23T01:44:59.730Z,13.48
2022-08-23T01:47:29.605Z,13.98
2022-08-23T01:49:58.608Z,13.75
2022-08-23T01:52:28.259Z,14.18
2022-08-23T01:54:57.387Z,14.47
2022-08-23T01:57:27.521Z,13.75
2022-08-23T01:59:56.253Z,14.82
2022-08-23T02:02:25.650Z,14.98
2022-08-23T02:04:54.322Z,15.52
2022-08-23T02:07:27.614Z,13.98
2022-08-23T02:09:57.420Z,17.75
2022-08-23T02:12:27.783Z,14.43
2022-08-23T02:15:06.685Z,17.53
2022-08-23T02:17:36.450Z,15.45
2022-08-23T02:20:06.673Z,16.42
2022-08-23T02:22:35.100Z,15.60
2022-08-23T02:25:04.438Z,16.05
2022-08-23T02:27:34.639Z,17.02
2022-08-23T02:30:03.404Z,17.63
2022-08-23T02:35:05.415Z,17.38
2022-08-23T02:37:35.834Z,17.83
2022-08-23T02:40:06.740Z,16.63
2022-08-23T02:42:37.289Z,16.35
2022-08-23T02:45:08.728Z,17.83
2022-08-23T02:47:43.016Z,16.48
2022-08-23T02:50:20.194Z,16.42
2022-08-23T02:52:48.682Z,16.80
2022-08-23T02:55:17.428Z,17.30
2022-08-23T02:57:47.562Z,16.80
2022-08-23T03:02:46.500Z,14.95
2022-08-23T03:05:15.914Z,15.10
2022-08-23T03:07:45.444Z,16.10
2022-08-23T03:10:16.279Z,15.73
2022-08-23T03:12:51.914Z,16.25
2022-08-23T03:15:21.073Z,15.32
2022-08-23T03:17:50.169Z,15.75
2022-08-23T03:20:19.483Z,14.90
2022-08-23T03:22:54.706Z,15.63
2022-08-23T03:25:26.193Z,15.98
2022-08-23T03:28:06.653Z,14.30
2022-08-23T03:30:37.917Z,15.65
2022-08-23T03:33:07.919Z,15.02
2022-08-23T03:35:36.823Z,15.13
2022-08-23T03:38:06.263Z,14.57
2022-08-23T03:40:36.445Z,15.13
2022-08-23T03:43:07.226Z,13.93
2022-08-23T03:45:36.307Z,15.40
2022-08-23T03:48:05.933Z,14.65
2022-08-23T03:50:36.407Z,16.85
2022-08-23T03:53:05.256Z,17.23
2022-08-23T03:55:33.944Z,15.85
2022-08-23T03:58:13.060Z,16.65
2022-08-23T04:00:41.907Z,17.42
2022-08-23T04:03:10.808Z,19.45
2022-08-23T04:05:55.871Z,20.52
2022-08-23T04:08:33.693Z,17.27
2022-08-23T04:11:04.496Z,16.83
2022-08-23T04:13:37.454Z,16.23
2022-08-23T04:16:07.259Z,16.27
2022-08-23T04:18:36.735Z,17.33
2022-08-23T04:21:11.144Z,15.55
2022-08-23T04:23:40.757Z,15.00
2022-08-23T04:26:09.952Z,14.80
2022-08-23T04:28:40.862Z,16.23
2022-08-23T04:33:40.675Z,14.48
2022-08-23T04:36:11.934Z,14.55
2022-08-23T04:38:40.740Z,14.77
2022-08-23T04:41:29.233Z,14.93
2022-08-23T04:44:02.898Z,13.65
2022-08-23T04:46:32.716Z,18.77
2022-08-23T04:49:03.894Z,14.48
2022-08-23T04:51:32.748Z,16.13
2022-08-23T04:54:01.545Z,15.45
2022-08-23T04:56:43.541Z,16.45
2022-08-23T04:59:14.871Z,15.50
2022-08-23T05:01:46.118Z,14.90
2022-08-23T05:04:15.736Z,13.23
2022-08-23T05:06:45.961Z,13.73
2022-08-23T05:09:18.525Z,14.50
2022-08-23T05:11:50.049Z,13.07
2022-08-23T05:14:21.102Z,12.33
2022-08-23T05:16:49.566Z,11.73
2022-08-23T05:19:18.596Z,12.32
2022-08-23T05:21:49.967Z,12.98
2022-08-23T05:24:22.216Z,12.68
2022-08-23T05:26:51.106Z,12.93
2022-08-23T05:29:21.651Z,13.52
2022-08-23T05:31:52.246Z,14.10
2022-08-23T05:34:23.526Z,12.88
2022-08-23T05:36:56.338Z,13.95
2022-08-23T05:39:37.101Z,14.48
2022-08-23T05:42:11.744Z,14.73
2022-08-23T05:44:42.329Z,13.52
2022-08-23T05:47:15.576Z,11.95
2022-08-23T05:49:57.370Z,11.25
2022-08-23T05:52:27.593Z,9.98
2022-08-23T05:54:56.531Z,9.87
2022-08-23T05:57:47.987Z,8.32
2022-08-23T06:00:18.231Z,8.68
2022-08-23T06:02:55.160Z,8.48
2022-08-23T06:05:25.508Z,8.98
2022-08-23T06:07:54.048Z,8.93
2022-08-23T06:10:26.151Z,8.75
2022-08-23T06:13:10.563Z,8.32
2022-08-23T06:15:45.673Z,8.35
2022-08-23T06:18:14.569Z,9.23
2022-08-23T06:20:44.207Z,8.57
2022-08-23T06:23:19.459Z,8.50
2022-08-23T06:25:47.742Z,9.38
2022-08-23T06:30:49.880Z,9.52
2022-08-23T06:33:28.917Z,10.32
2022-08-23T06:36:17.490Z,10.98
2022-08-23T06:39:01.194Z,8.63
2022-08-23T06:41:49.796Z,9.75
2022-08-23T06:44:30.032Z,9.40
2022-08-23T06:49:58.337Z,10.25
2022-08-23T06:52:48.650Z,9.65
2022-08-23T06:55:41.678Z,8.88
2022-08-23T06:58:36.173Z,9.32
2022-08-23T07:01:49.485Z,10.70
2022-08-23T07:04:40.922Z,9.38
2022-08-23T07:07:16.675Z,8.43
2022-08-23T07:09:45.468Z,9.15
2022-08-23T07:12:14.263Z,8.95
2022-08-23T07:14:44.881Z,8.90
2022-08-23T07:17:14.664Z,8.75
2022-08-23T07:19:45.625Z,8.35
2022-08-23T07:22:15.572Z,10.07
2022-08-23T07:24:44.602Z,8.95
2022-08-23T07:27:13.486Z,8.07
2022-08-23T07:29:49.288Z,9.18
2022-08-23T07:32:18.620Z,8.57
2022-08-23T07:34:49.046Z,8.15
2022-08-23T07:37:18.884Z,7.57
2022-08-23T07:39:47.749Z,9.40
2022-08-23T07:42:23.891Z,8.45
2022-08-23T07:44:57.691Z,8.38
2022-08-23T07:47:30.502Z,9.18
2022-08-23T07:50:02.716Z,8.90
2022-08-23T07:52:33.768Z,10.02
2022-08-23T07:55:02.624Z,9.55
2022-08-23T07:57:52.612Z,8.82
2022-08-23T08:00:48.153Z,9.15
2022-08-23T08:03:42.090Z,8.32
2022-08-23T08:06:32.442Z,9.02
2022-08-23T08:09:01.592Z,7.75
2022-08-23T08:11:35.162Z,8.27
2022-08-23T08:14:07.470Z,8.38
2022-08-23T08:16:39.416Z,8.68
2022-08-23T08:19:09.894Z,9.23
2022-08-23T08:22:04.649Z,9.07
2022-08-23T08:24:53.403Z,9.77
2022-08-23T08:27:22.637Z,9.07
2022-08-23T08:29:51.522Z,8.48
2022-08-23T08:32:20.619Z,8.75
2022-08-23T08:34:48.981Z,9.50
2022-08-23T08:37:19.186Z,9.77
2022-08-23T08:39:48.082Z,9.90
2022-08-23T08:42:42.584Z,9.10
2022-08-23T08:45:14.751Z,9.07
2022-08-23T08:47:48.291Z,9.07
2022-08-23T08:50:24.250Z,8.98
2022-08-23T08:53:02.456Z,9.65
2022-08-23T08:55:51.363Z,10.18
2022-08-23T08:58:26.694Z,10.48
2022-08-23T09:00:56.658Z,9.63
2022-08-23T09:05:59.145Z,8.88
2022-08-23T09:08:42.446Z,8.75
2022-08-23T09:11:20.699Z,8.60
2022-08-23T09:14:10.477Z,9.15
2022-08-23T09:16:49.507Z,9.82
2022-08-23T09:19:19.932Z,8.55
2022-08-23T09:21:55.403Z,7.97
2022-08-23T09:24:27.568Z,9.27
2022-08-23T09:27:07.984Z,8.35
2022-08-23T09:29:39.028Z,9.52
2022-08-23T09:32:26.959Z,10.05
2022-08-23T09:35:08.002Z,8.25
2022-08-23T09:37:49.969Z,8.82
2022-08-23T09:40:28.156Z,8.50
2022-08-23T09:43:08.757Z,8.35
2022-08-23T09:45:40.725Z,8.68
2022-08-23T09:48:14.963Z,8.43
2022-08-23T09:50:54.683Z,7.90
2022-08-23T09:53:27.290Z,10.55
2022-08-23T09:55:59.181Z,8.38
2022-08-23T09:58:31.980Z,9.02
2022-08-23T10:01:13.712Z,9.25
2022-08-23T10:03:46.353Z,9.75
2022-08-23T10:06:32.186Z,8.23
2022-08-23T10:09:07.761Z,8.88
2022-08-23T10:11:41.800Z,9.60
2022-08-23T10:14:15.897Z,9.35
2022-08-23T10:16:57.282Z,7.60
2022-08-23T10:19:30.812Z,8.55
2022-08-23T10:22:03.941Z,8.35
2022-08-23T10:24:39.728Z,9.15
2022-08-23T10:27:49.857Z,8.18
2022-08-23T10:30:20.842Z,9.35
2022-08-23T10:33:03.163Z,9.25
2022-08-23T10:35:38.887Z,7.57
2022-08-23T10:38:34.315Z,9.68
2022-08-23T10:41:14.213Z,8.52
2022-08-23T10:43:50.497Z,7.85
2022-08-23T10:46:21.122Z,8.27
2022-08-23T10:48:54.022Z,7.78
2022-08-23T10:51:31.804Z,8.73
2022-08-23T10:54:06.445Z,8.50
2022-08-23T10:56:42.914Z,7.05
2022-08-23T10:59:17.850Z,7.85
2022-08-23T11:01:54.442Z,8.23
2022-08-23T11:04:30.436Z,7.90
2022-08-23T11:07:17.541Z,7.70
2022-08-23T11:09:54.981Z,7.13
2022-08-23T11:12:29.916Z,6.55
2022-08-23T11:15:36.929Z,7.68
2022-08-23T11:18:40.752Z,7.40
2022-08-23T11:21:13.810Z,7.70
2022-08-23T11:23:56.046Z,7.55
2022-08-23T11:27:07.275Z,8.32
2022-08-23T11:29:43.448Z,6.07
2022-08-23T11:32:44.640Z,6.22
2022-08-23T11:35:36.928Z,7.10
2022-08-23T11:38:10.734Z,8.73
2022-08-23T11:41:13.398Z,6.90
2022-08-23T11:43:45.497Z,8.10
2022-08-23T11:46:31.307Z,10.15
2022-08-23T11:49:42.561Z,6.43
2022-08-23T11:52:29.870Z,7.93
2022-08-23T11:55:15.224Z,6.78
2022-08-23T11:57:56.194Z,8.07
2022-08-23T12:00:29.171Z,7.20
2022-08-23T12:03:03.115Z,7.57
2022-08-23T12:05:45.423Z,7.82
2022-08-23T12:08:49.288Z,7.70
2022-08-23T12:11:20.628Z,8.02
2022-08-23T12:14:01.720Z,7.45
2022-08-23T12:16:49.842Z,8.05
2022-08-23T12:19:31.280Z,7.60
2022-08-23T12:22:07.724Z,7.50
2022-08-23T12:24:53.480Z,8.52
2022-08-23T12:27:30.140Z,7.60
2022-08-23T12:30:02.167Z,7.78
2022-08-23T12:32:44.289Z,7.68
2022-08-23T12:35:28.435Z,7.22
2022-08-23T12:38:01.804Z,7.47
2022-08-23T12:40:33.678Z,7.38
2022-08-23T12:43:17.719Z,8.07
2022-08-23T12:45:53.845Z,7.80
2022-08-23T12:48:33.919Z,8.05
2022-08-23T12:51:13.742Z,8.40
2022-08-23T12:53:45.700Z,7.40
2022-08-23T12:56:39.575Z,8.90
2022-08-23T12:59:36.522Z,8.10
2022-08-23T13:02:09.787Z,8.10
2022-08-23T13:04:40.644Z,8.23
2022-08-23T13:07:12.942Z,8.98
2022-08-23T13:09:53.978Z,7.15
2022-08-23T13:12:25.498Z,8.80
2022-08-23T13:15:01.478Z,7.80
2022-08-23T13:17:39.979Z,9.27
2022-08-23T13:20:21.809Z,8.10
2022-08-23T13:23:00.686Z,9.57
2022-08-23T13:26:27.664Z,8.18
2022-08-23T13:29:26.517Z,9.25
2022-08-23T13:32:30.632Z,8.50
2022-08-23T13:35:40.666Z,8.50
2022-08-23T13:38:39.320Z,9.85
2022-08-23T13:41:38.695Z,9.82
2022-08-23T13:44:09.283Z,10.68
2022-08-23T13:46:46.083Z,8.30
2022-08-23T13:49:18.150Z,9.00
2022-08-23T13:52:41.308Z,8.98
2022-08-23T13:54:56.599Z,9.48
2022-08-23T13:57:30.090Z,11.27
2022-08-23T14:00:00.073Z,8.82
2022-08-23T14:02:30.365Z,9.75
2022-08-23T14:04:59.180Z,10.18
2022-08-23T14:07:27.581Z,8.93
2022-08-23T14:09:57.351Z,8.85
2022-08-23T14:12:33.447Z,10.55
2022-08-23T14:15:03.978Z,11.32
2022-08-23T14:17:36.326Z,9.88
2022-08-23T14:22:56.054Z,10.82
2022-08-23T14:25:24.877Z,9.82
2022-08-23T14:27:55.066Z,9.05
2022-08-23T14:30:30.060Z,10.88
2022-08-23T14:32:59.148Z,10.52
2022-08-23T14:35:28.523Z,9.23
2022-08-23T14:38:05.024Z,9.10
2022-08-23T14:40:34.453Z,10.32
2022-08-23T14:43:06.066Z,12.05
2022-08-23T14:45:34.786Z,8.60
2022-08-23T14:48:03.858Z,10.32
2022-08-23T14:50:33.029Z,11.18
2022-08-23T14:53:04.238Z,9.88
2022-08-23T14:55:32.893Z,10.23
2022-08-23T14:58:01.692Z,7.85
2022-08-23T15:00:32.219Z,9.30
2022-08-23T15:03:01.245Z,7.25
2022-08-23T15:05:30.935Z,7.22
2022-08-23T15:07:59.684Z,7.07
2022-08-23T15:13:27.052Z,5.00
2022-08-23T15:16:00.132Z,6.30
2022-08-23T15:18:29.346Z,6.13
2022-08-23T15:20:58.043Z,6.28
2022-08-23T15:23:26.939Z,6.45
2022-08-23T15:25:56.705Z,5.40
2022-08-23T15:28:26.317Z,5.93
2022-08-23T15:30:55.270Z,6.73
2022-08-23T15:33:26.825Z,6.07
2022-08-23T15:35:55.934Z,6.97
2022-08-23T15:38:26.511Z,5.72
2022-08-23T15:40:55.717Z,6.05
2022-08-23T15:43:33.905Z,6.10
2022-08-23T15:46:06.122Z,6.07
2022-08-23T15:48:38.897Z,5.70
2022-08-23T15:51:07.809Z,5.20
2022-08-23T15:53:39.337Z,5.18
2022-08-23T15:56:11.027Z,5.35
2022-08-23T15:58:40.327Z,6.22
2022-08-23T16:01:09.863Z,5.72
2022-08-23T16:03:42.332Z,7.72
2022-08-23T16:06:12.606Z,6.22
2022-08-23T16:08:43.854Z,6.60
2022-08-23T16:11:13.333Z,6.20
2022-08-23T16:13:42.827Z,5.15
2022-08-23T16:16:17.733Z,6.25
2022-08-23T16:18:48.110Z,5.55
2022-08-23T16:21:17.497Z,5.10
2022-08-23T16:23:46.347Z,5.53
2022-08-23T16:26:17.818Z,6.50
2022-08-23T16:28:52.731Z,5.40
2022-08-23T16:31:21.772Z,5.63
2022-08-23T16:34:09.431Z,6.50
2022-08-23T16:36:38.622Z,5.55
2022-08-23T16:39:07.863Z,5.35
2022-08-23T16:41:36.522Z,6.40
2022-08-23T16:44:05.567Z,6.43
2022-08-23T16:46:34.290Z,6.05
2022-08-23T16:49:03.038Z,6.55
2022-08-23T16:51:33.130Z,5.60
2022-08-23T16:54:02.778Z,5.60
2022-08-23T16:56:31.891Z,7.18
2022-08-23T16:59:00.880Z,6.78
2022-08-23T17:01:30.079Z,6.03
2022-08-23T17:03:58.986Z,6.78
2022-08-23T17:06:27.724Z,6.03
2022-08-23T17:08:57.926Z,6.55
2022-08-23T17:14:05.358Z,6.13
2022-08-23T17:16:35.232Z,6.72
2022-08-23T17:19:04.012Z,6.05
2022-08-23T17:21:35.401Z,5.80
2022-08-23T17:24:06.311Z,6.15
2022-08-23T17:26:35.262Z,5.95
2022-08-23T17:29:04.870Z,7.07
2022-08-23T17:31:33.372Z,5.30
2022-08-23T17:34:04.079Z,7.07
2022-08-23T17:36:41.064Z,6.88
2022-08-23T17:39:14.313Z,5.15
2022-08-23T17:41:45.364Z,6.30
2022-08-23T17:44:15.303Z,6.22
2022-08-23T17:46:45.247Z,6.95
2022-08-23T17:51:43.374Z,5.78
2022-08-23T17:54:16.417Z,6.15
2022-08-23T17:56:49.948Z,6.75
2022-08-23T17:59:19.949Z,6.25
2022-08-23T18:01:48.438Z,6.80
2022-08-23T18:04:18.852Z,6.30
2022-08-23T18:06:48.580Z,5.80
2022-08-23T18:09:19.814Z,6.35
2022-08-23T18:11:49.008Z,6.35
2022-08-23T18:14:18.272Z,5.25
2022-08-23T18:16:47.068Z,7.25
2022-08-23T18:19:16.368Z,7.53
2022-08-23T18:21:46.732Z,6.18
2022-08-23T18:24:15.537Z,7.30
2022-08-23T18:27:03.751Z,6.38
2022-08-23T18:29:34.693Z,5.55
2022-08-23T18:32:03.897Z,6.50
2022-08-23T18:34:32.213Z,6.57
2022-08-23T18:37:00.979Z,6.15
2022-08-23T18:39:32.206Z,6.47
2022-08-23T18:42:03.587Z,6.13
2022-08-23T18:44:32.647Z,6.50
2022-08-23T18:47:03.032Z,8.13
2022-08-23T18:49:33.721Z,6.97
2022-08-23T18:52:02.998Z,6.85
2022-08-23T18:54:33.917Z,7.45
2022-08-23T18:57:04.911Z,7.85
2022-08-23T18:59:33.751Z,7.03
2022-08-23T19:02:02.634Z,7.88
2022-08-23T19:04:31.413Z,7.30
2022-08-23T19:07:00.120Z,7.65
2022-08-23T19:09:28.925Z,8.07
2022-08-23T19:12:00.338Z,11.20
2022-08-23T19:14:33.378Z,9.43
2022-08-23T19:17:03.654Z,7.25
2022-08-23T19:19:33.822Z,7.45
2022-08-23T19:22:03.548Z,7.85
2022-08-23T19:24:33.273Z,9.38
2022-08-23T19:27:02.158Z,8.50
2022-08-23T19:29:33.182Z,7.43
2022-08-23T19:32:02.944Z,7.50
2022-08-23T19:34:31.395Z,8.30
2022-08-23T19:37:01.417Z,8.15
2022-08-23T19:39:30.944Z,8.60
2022-08-23T19:41:59.998Z,7.90
2022-08-23T19:44:28.853Z,8.02
2022-08-23T19:46:58.977Z,7.78
2022-08-23T19:49:27.482Z,7.53
2022-08-23T19:51:56.550Z,7.43
2022-08-23T19:54:26.067Z,7.40
2022-08-23T19:56:57.714Z,7.50
2022-08-23T19:59:29.591Z,9.25
2022-08-23T20:02:00.455Z,6.97
2022-08-23T20:04:31.222Z,8.07
2022-08-23T20:07:02.335Z,7.45
2022-08-23T20:09:32.776Z,7.35
2022-08-23T20:14:33.220Z,6.82
2022-08-23T20:17:06.673Z,8.95
2022-08-23T20:19:36.326Z,7.65
2022-08-23T20:22:23.237Z,7.13
2022-08-23T20:24:52.896Z,7.13
2022-08-23T20:27:29.324Z,7.82
2022-08-23T20:30:00.459Z,7.20
2022-08-23T20:32:31.386Z,9.02
2022-08-23T20:35:00.579Z,7.07
2022-08-23T20:37:29.454Z,7.55
2022-08-23T20:39:58.635Z,6.97
2022-08-23T20:42:27.977Z,8.18
2022-08-23T20:44:56.873Z,6.57
2022-08-23T20:47:25.612Z,8.70
2022-08-23T20:49:55.417Z,6.50
2022-08-23T20:52:24.160Z,6.93
2022-08-23T20:54:53.575Z,6.53
2022-08-23T20:57:22.353Z,7.43
2022-08-23T20:59:51.203Z,8.13
2022-08-23T21:02:19.923Z,6.68
2022-08-23T21:04:48.445Z,7.80
2022-08-23T21:07:18.702Z,6.55
2022-08-23T21:09:48.159Z,7.05
2022-08-23T21:12:16.847Z,7.35
2022-08-23T21:14:45.599Z,7.10
2022-08-23T21:17:14.180Z,7.28
2022-08-23T21:19:44.265Z,6.53
2022-08-23T21:22:12.929Z,7.30
2022-08-23T21:24:43.008Z,7.45
2022-08-23T21:27:11.635Z,7.22
2022-08-23T21:29:40.671Z,7.43
2022-08-23T21:32:09.436Z,7.57
2022-08-23T21:34:37.774Z,7.25
2022-08-23T21:37:06.665Z,7.97
2022-08-23T21:39:35.326Z,7.85
2022-08-23T21:42:14.790Z,8.32
2022-08-23T21:44:45.119Z,8.05
2022-08-23T21:47:15.009Z,7.70
2022-08-23T21:49:43.629Z,8.13
2022-08-23T21:52:12.326Z,8.05
2022-08-23T21:54:43.555Z,7.82
2022-08-23T21:57:13.915Z,7.47
2022-08-23T21:59:42.587Z,8.93
2022-08-23T22:02:11.257Z,9.73
2022-08-23T22:04:39.724Z,8.73
2022-08-23T22:07:08.439Z,8.07
2022-08-23T22:09:37.570Z,7.55
2022-08-23T22:12:07.637Z,7.85
2022-08-23T22:14:37.956Z,7.30
2022-08-23T22:17:06.753Z,9.13
2022-08-23T22:19:35.089Z,7.72
2022-08-23T22:22:03.784Z,8.20
2022-08-23T22:24:32.419Z,11.95
2022-08-23T22:27:01.172Z,24.00
2022-08-23T22:29:30.081Z,27.77
2022-08-23T22:32:02.161Z,29.60
2022-08-23T22:34:30.783Z,21.40
2022-08-23T22:36:59.520Z,14.55
2022-08-23T22:39:28.296Z,16.50
2022-08-23T22:41:57.198Z,11.98
2022-08-23T22:44:25.889Z,11.98
2022-08-23T22:46:54.459Z,12.30
2022-08-23T22:49:24.682Z,9.85
2022-08-23T22:51:55.435Z,10.43
2022-08-23T22:54:24.785Z,9.43
2022-08-23T22:56:54.176Z,10.15
2022-08-23T22:59:25.801Z,8.55
2022-08-23T23:01:58.789Z,9.35
2022-08-23T23:04:29.833Z,9.20
2022-08-23T23:09:27.746Z,8.82
2022-08-23T23:11:56.871Z,11.18
2022-08-23T23:14:25.645Z,9.88
2022-08-23T23:16:54.327Z,9.07
2022-08-23T23:19:40.877Z,8.40
2022-08-23T23:22:11.089Z,10.20
2022-08-23T23:24:40.921Z,9.23
2022-08-23T23:27:10.040Z,8.95
2022-08-23T23:29:38.998Z,9.13
2022-08-23T23:32:08.061Z,9.15
2022-08-23T23:34:38.055Z,8.43
2022-08-23T23:39:36.705Z,9.60
2022-08-23T23:42:05.527Z,9.25
2022-08-23T23:44:34.264Z,9.50
2022-08-23T23:47:03.604Z,8.68
2022-08-23T23:49:33.664Z,8.75
2022-08-23T23:52:03.616Z,10.68
2022-08-23T23:54:34.001Z,9.75
2022-08-23T23:57:04.739Z,9.32
2022-08-23T23:59:33.611Z,9.27
